• Join FlightAware (Why Join?)
  • Login
  • US Flag 
10:00AM EDT


 

Airport Tracker/Info


-or-


 

Live Flight TrackerFlight Track Log ✈ AWE3997 ✈ 08-Aug-2014 ✈ KHSV - KDCA

Flight Track Log - Related Links

Times and Time Zones

All times are in EDT time to prevent confusion due to time zone crossing. See the AWE3997 flight status page for this flight to view local times or setup timezone preferences in your user account.

Time Position Orientation Groundspeed Altitude Reporting Facility
EDT Latitude Longitude Course Direction KTS MPH feet Rate Location/Type
10:55AM 34.5308 -86.7367 61° Northeast 225 259 4,900  Level Memphis Center
10:56AM 34.5239 -86.6672 97° East 242 278 6,600 1,500 Climbing Memphis Center
10:57AM 34.8244 -86.3535 62° Northeast  Level FlightAware Approximate
10:57AM 34.5661 -86.5836 58° Northeast 287 330 8,000  Level Memphis Center
10:58AM 34.8659 -86.2439 66° East  Level FlightAware Approximate
10:58AM 34.6125 -86.4956 57° Northeast 304 350 10,200  Level Memphis Center
10:59AM 34.9077 -86.1346 59° Northeast  Level FlightAware Approximate
11:00AM 34.9616 -86.0268 59° Northeast  Level FlightAware Approximate
11:00AM 34.6597 -86.4050 58° Northeast 313 360 12,300  Level Memphis Center
11:01AM 35.0134 -85.9174 61° Northeast  Level FlightAware Approximate
11:01AM 34.7078 -86.3117 58° Northeast 320 368 14,400  Level Memphis Center
11:02AM 34.7667 -86.1964 58° Northeast 332 382 16,500 1,800 Climbing Memphis Center
11:03AM 34.8156 -86.0994 58° Northeast 334 384 18,200 1,440 Climbing Memphis Center
11:04AM 34.8658 -85.9983 59° Northeast 337 388 19,600 1,200 Climbing Memphis Center
11:05AM 34.9186 -85.8992 57° Northeast 345 397 20,800 1,140 Climbing Memphis Center
11:06AM 34.9681 -85.7958 60° Northeast 348 400 22,000 960 Climbing Memphis Center
11:07AM 35.0206 -85.6922 58° Northeast 356 410 22,900 960 Climbing Memphis Center
11:08AM 35.0858 -85.5683 57° Northeast 359 413 24,100 1,080 Climbing Memphis Center
11:09AM 35.1383 -85.4631 59° Northeast 361 415 25,200 960 Climbing Memphis Center
11:10AM 35.1911 -85.3564 59° Northeast 362 417 26,100 900 Climbing Memphis Center
11:11AM 35.2442 -85.2508 58° Northeast 363 418 27,100 780 Climbing Memphis Center
11:12AM 35.2967 -85.1444 59° Northeast 363 418 27,800 660 Climbing Memphis Center
11:13AM 35.3281 -85.0800 59° Northeast 357 411 28,200 660 Climbing Atlanta Center
11:14AM 35.3831 -84.9711 58° Northeast 357 411 28,900 660 Climbing Atlanta Center
11:15AM 35.4361 -84.8594 60° Northeast 362 417 29,600 600 Climbing Atlanta Center
11:16AM 35.4889 -84.7503 59° Northeast 362 417 30,200 540 Climbing Atlanta Center
11:17AM 35.5436 -84.6386 59° Northeast 367 422 30,700 360 Climbing Atlanta Center
11:18AM 35.5983 -84.5267 59° Northeast 372 428 31,000 120 Climbing Atlanta Center
11:19AM 35.6553 -84.4067 60° Northeast 383 441 31,000  Level Atlanta Center
11:20AM 35.7139 -84.2894 58° Northeast 395 455 31,000  Level Atlanta Center
11:21AM 35.7744 -84.1667 59° Northeast 400 460 31,000  Level Atlanta Center
11:22AM 35.8331 -84.0464 59° Northeast 405 466 31,000  Level Atlanta Center
11:23AM 35.8933 -83.9233 59° Northeast 405 466 31,000  Level Atlanta Center
11:24AM 35.9642 -83.8103 52° Northeast 410 472 31,000  Level Atlanta Center
11:25AM 36.0411 -83.6997 49° Northeast 415 478 31,000  Level Atlanta Center
11:26AM 36.1181 -83.5942 48° Northeast 415 478 31,000  Level Atlanta Center
11:26AM 36.1825 -83.4964 51° Northeast 419 482 31,000 240 Level Indianapolis Center
11:27AM 36.2589 -83.3867 49° Northeast 419 482 31,500 720 Climbing Indianapolis Center
11:28AM 36.3333 -83.2797 49° Northeast 414 476 32,500 720 Climbing Indianapolis Center
11:29AM 36.4042 -83.1769 49° Northeast 399 459 33,000 240 Climbing Indianapolis Center
11:30AM 36.4872 -83.0569 49° Northeast 394 453 33,000  Level Indianapolis Center
11:31AM 36.5578 -82.9533 50° Northeast 394 453 33,000  Level Indianapolis Center
11:33AM 36.6272 -82.8508 50° Northeast 393 452 33,000  Level Indianapolis Center
11:34AM 36.6975 -82.7481 50° Northeast 393 452 33,000  Level Indianapolis Center
11:35AM 36.7683 -82.6447 49° Northeast 393 452 33,000  Level Indianapolis Center
11:36AM 36.8517 -82.5242 49° Northeast 394 453 33,000  Level Indianapolis Center
11:37AM 36.9233 -82.4178 50° Northeast 395 455 33,000  Level Indianapolis Center
11:38AM 36.9956 -82.3108 50° Northeast 401 461 33,000  Level Indianapolis Center
11:39AM 37.0686 -82.2022 50° Northeast 404 465 33,000  Level Indianapolis Center
11:40AM 37.1425 -82.0931 50° Northeast 407 468 33,000  Level Indianapolis Center
11:41AM 37.2289 -81.9639 50° Northeast 410 472 33,000  Level Indianapolis Center
11:42AM 37.3022 -81.8522 50° Northeast 411 473 33,000  Level Indianapolis Center
11:43AM 37.3769 -81.7406 50° Northeast 413 475 33,000  Level Indianapolis Center
11:44AM 37.4514 -81.6258 51° Northeast 419 482 33,000  Level Indianapolis Center
11:45AM 37.5258 -81.5125 50° Northeast 419 482 33,000  Level Indianapolis Center
11:46AM 37.6097 -81.3867 50° Northeast 422 486 33,000  Level Indianapolis Center
11:47AM 37.6850 -81.2717 50° Northeast 424 488 33,000  Level Indianapolis Center
11:48AM 37.7606 -81.1550 51° Northeast 424 488 33,000  Level Indianapolis Center
11:49AM 37.8178 -81.0211 62° Northeast 431 496 33,000  Level Indianapolis Center
11:50AM 37.8775 -80.8500 66° East 439 505 33,000  Level Indianapolis Center
11:51AM 37.9275 -80.7081 66° East 441 507 33,000  Level Indianapolis Center
11:52AM 37.9786 -80.5636 66° East 445 512 33,000  Level Indianapolis Center
11:53AM 38.0281 -80.4239 66° East 449 517 33,000  Level Washington Center
11:54AM 38.0797 -80.2769 66° East 449 517 33,000  Level Washington Center
11:55AM 38.1244 -80.1425 67° East 454 522 33,000  Level Washington Center
11:56AM 38.1669 -80.0103 68° East 454 522 33,000  Level Washington Center
11:57AM 38.2236 -79.8286 68° East 454 522 33,000 -540 Level Washington Center
11:58AM 38.2728 -79.6753 68° East 454 522 32,000 -1,320 Descending Washington Center
11:59AM 38.3219 -79.5114 69° East 482 555 30,400 -1,560 Descending Washington Center
12:00PM 38.3708 -79.3497 69° East 490 564 28,900 -1,680 Descending Washington Center
12:01PM 38.4217 -79.1933 67° East 479 551 27,000 -1,680 Descending Washington Center
12:02PM 38.4656 -79.0442 69° East 462 532 25,600 -1,620 Descending Washington Center
12:03PM 38.4928 -78.8942 77° East 435 501 23,900 -1,560 Descending Washington Center
12:04PM 38.5153 -78.7519 79° East 425 489 22,500 -1,500 Descending Washington Center
12:05PM 38.5378 -78.6094 79° East 418 481 20,900 -1,560 Descending Washington Center
12:06PM 38.5600 -78.4725 78° East 402 463 19,500 -1,440 Descending Washington Center
12:07PM 38.5819 -78.3353 78° East 397 457 18,100 -1,320 Descending Washington Center
12:08PM 38.6119 -78.2086 73° East 385 443 16,900 -1,320 Descending Washington Center
12:09PM 38.6519 -78.0853 67° East 373 429 15,500 -1,380 Descending Washington Center
12:10PM 38.6878 -77.9667 69° East 361 415 14,300 -1,200 Descending Washington Center
12:11PM 38.7231 -77.8586 67° East 347 399 13,200 -1,200 Descending Washington Center
12:12PM 38.7728 -77.7697 54° Northeast 317 365 12,000 -1,200 Descending Washington Center
12:13PM 38.8264 -77.6833 51° Northeast 306 352 10,800 -1,200 Descending Washington Center
12:14PM 38.8656 -77.5858 63° Northeast 300 345 9,600 -1,200 Descending Washington Center
12:15PM 38.8964 -77.4906 67° East 295 339 8,400 -1,260 Descending Washington Center
12:16PM 38.8833 -77.3667 98° East 286 329 6,900 -1,140 Descending Potomac TRACON
12:17PM 38.8333 -77.2833 128° Southeast 292 336 6,000 -1,080 Descending Potomac TRACON
12:18PM 38.8000 -77.1833 113° Southeast 285 328 4,800 -1,020 Descending Potomac TRACON
12:19PM 38.7500 -77.1167 134° Southeast 256 295 4,000 -780 Descending Potomac TRACON
12:20PM 38.7333 -77.0667 113° Southeast 197 227 3,300 -1,080 Descending Potomac TRACON
12:21PM 38.7667 -77.0333 38° Northeast 164 189 1,900 -1,260 Descending Potomac TRACON
12:22PM 38.8000 -77.0167 21° North 142 163 1,000 -1,020 Descending Potomac TRACON
12:24PM 38.8500 -77.0333 North  Level FlightAware Approximate